Time;durP1;ratioP1;P1;durP2;ratioP2;P2;SDS_P1;SDS_P2;PMS_P1;PMS_P2;Temp;Humidity;BMP_temperature;BMP_pressure;BME280_temperature;BME280_humidity;BME280_pressure;Samples;Min_cycle;Max_cycle;Signal;HPM_P1;HPM_P2
2024/01/14 00:40:35;;;;;;;21.80;14.00;;;;;;;-1.06;67.79;98136.98;97016;1280;94371;-78
2024/01/14 02:00:54;;;;;;;23.40;10.70;;;;;;;-1.77;71.16;98021.71;106129;1263;95513;-77
2024/01/14 02:56:14;;;;;;;19.30;9.10;;;;;;;-1.80;70.11;97926.56;105070;1287;94596;-77
2024/01/14 03:24:37;;;;;;;17.90;10.50;;;;;;;-1.39;69.27;97886.27;107133;1262;94651;-79
2024/01/14 11:18:36;;;;;;;11.00;6.20;;;;;;;1.59;69.79;97720.63;104654;1244;5400505;-78
2024/01/14 11:36:05;;;;;;;;;;;;;;;;;;;;;
2024/01/14 12:01:37;;;;;;;;;;;;;;;;;;;;;
2024/01/14 12:37:06;;;;;;;12.80;6.30;;;;;;;1.35;69.63;97700.88;106936;1241;95289;-81
2024/01/14 15:13:58;;;;;;;15.50;7.70;;;;;;;1.11;68.93;97732.44;108528;1237;107083;-80
2024/01/14 15:16:24;;;;;;;16.10;8.50;;;;;;;1.10;68.85;97731.63;108417;1244;95239;-81
2024/01/14 15:18:51;;;;;;;23.20;11.20;;;;;;;1.09;68.93;97731.52;108140;1245;95272;-76
2024/01/14 15:21:18;;;;;;;14.80;9.50;;;;;;;1.06;68.90;97733.23;108443;1237;96134;-80
2024/01/14 15:23:47;;;;;;;17.40;9.60;;;;;;;1.03;68.89;97732.67;108832;1237;95145;-80
2024/01/14 15:26:14;;;;;;;;;;;;;;;1.00;68.91;97737.36;108672;1234;95370;-80
2024/01/14 15:28:41;;;;;;;54.50;23.00;;;;;;;0.95;68.93;97736.61;108625;1238;96125;-81
2024/01/14 15:31:08;;;;;;;77.50;46.30;;;;;;;0.92;69.06;97736.42;108513;1240;95268;-80
2024/01/14 15:33:36;;;;;;;52.10;26.40;;;;;;;0.91;69.13;97734.05;108450;1235;95650;-80
2024/01/14 15:36:21;;;;;;;25.20;12.30;;;;;;;0.88;68.98;97732.98;108520;1238;95198;-80
2024/01/14 15:38:49;;;;;;;60.20;25.00;;;;;;;0.85;68.90;97735.92;108346;1236;107565;-78
2024/01/14 15:41:17;;;;;;;61.80;21.90;;;;;;;0.83;68.90;97733.60;108245;1238;95307;-80
2024/01/14 15:43:44;;;;;;;30.80;13.20;;;;;;;0.80;69.00;97731.48;108628;1238;95269;-79
2024/01/14 15:46:11;;;;;;;30.10;11.50;;;;;;;0.78;68.91;97731.45;108607;1237;95471;-80
2024/01/14 15:48:40;;;;;;;23.60;9.70;;;;;;;0.77;68.92;97729.92;108491;1238;96023;-79
2024/01/14 15:51:08;;;;;;;49.10;21.20;;;;;;;0.75;68.94;97727.05;108729;1237;107806;-78
2024/01/14 15:53:41;;;;;;;69.40;25.60;;;;;;;0.74;68.92;97727.80;108460;1237;95257;-78
2024/01/14 15:56:07;;;;;;;162.30;50.90;;;;;;;0.74;69.06;97736.52;108365;1241;96039;-79
2024/01/14 15:58:37;;;;;;;112.60;38.00;;;;;;;0.73;68.99;97732.53;108604;1237;95236;-78
2024/01/14 16:01:04;;;;;;;83.60;30.70;;;;;;;0.74;69.05;97735.65;108594;1237;95385;-78
2024/01/14 16:03:38;;;;;;;91.40;31.30;;;;;;;0.74;68.95;97733.37;108541;1233;107881;-80
2024/01/14 16:06:10;;;;;;;27.60;11.60;;;;;;;0.73;68.94;97732.73;108476;1237;95541;-77
2024/01/14 16:08:37;;;;;;;16.90;8.90;;;;;;;0.74;68.97;97732.84;111134;1235;93392;-79
2024/01/14 16:11:06;;;;;;;27.00;12.50;;;;;;;0.75;69.21;97726.69;109682;1237;108036;-79
2024/01/14 16:13:34;;;;;;;47.90;18.70;;;;;;;0.74;69.05;97724.64;111011;1233;94999;-79
2024/01/14 16:16:03;;;;;;;23.20;10.30;;;;;;;0.75;69.01;97722.34;110202;1233;108155;-81
2024/01/14 16:18:30;;;;;;;53.40;19.30;;;;;;;0.74;68.97;97718.36;110690;1233;94671;-81
2024/01/14 16:20:57;;;;;;;54.20;19.20;;;;;;;0.73;68.87;97709.67;108601;1235;95212;-76
2024/01/14 16:23:32;;;;;;;35.00;13.70;;;;;;;0.71;68.96;97709.44;108519;1241;107623;-76
2024/01/14 16:25:59;;;;;;;33.00;14.50;;;;;;;0.70;68.91;97711.27;108714;1237;95368;-78
2024/01/14 16:28:26;;;;;;;26.40;12.30;;;;;;;0.68;68.99;97708.90;108479;1233;95328;-75
2024/01/14 16:30:53;;;;;;;36.00;15.70;;;;;;;0.67;68.83;97702.71;108690;1237;95159;-76
2024/01/14 16:33:36;;;;;;;23.30;10.90;;;;;;;0.65;68.85;97706.98;108456;1233;95258;-77
2024/01/14 16:36:03;;;;;;;22.10;10.50;;;;;;;0.64;68.86;97709.80;110314;1232;94306;-78
2024/01/14 16:38:30;;;;;;;29.60;12.30;;;;;;;0.64;68.91;97709.31;108644;1241;96458;-77
2024/01/14 16:40:56;;;;;;;18.40;8.30;;;;;;;0.64;68.89;97706.85;108691;1233;95274;-78
2024/01/14 16:43:31;;;;;;;17.30;9.20;;;;;;;0.64;68.90;97705.99;108423;1237;95226;-76
2024/01/14 16:45:57;;;;;;;17.50;9.10;;;;;;;0.64;68.91;97711.42;108463;1235;95246;-77
2024/01/14 16:48:24;;;;;;;;;;;;;;;0.63;68.94;97707.28;108819;1232;95248;-78
2024/01/14 16:50:53;;;;;;;26.00;10.30;;;;;;;0.61;69.09;97704.09;108358;1237;95214;-76
2024/01/14 16:53:35;;;;;;;31.70;12.40;;;;;;;0.60;68.96;97703.96;108753;1233;108042;-79
2024/01/14 16:56:03;;;;;;;25.80;10.90;;;;;;;0.59;69.12;97699.47;108612;1243;95228;-82
2024/01/14 16:58:31;;;;;;;34.10;14.30;;;;;;;0.58;69.00;97701.23;108605;1237;95226;-79
2024/01/14 17:00:58;;;;;;;26.10;9.50;;;;;;;0.57;68.90;97699.89;108604;1237;108255;-79
2024/01/14 17:03:42;;;;;;;28.50;12.70;;;;;;;0.57;68.83;97697.45;109148;1235;95688;-80
2024/01/14 17:06:12;;;;;;;27.00;12.60;;;;;;;0.57;69.03;97699.73;108955;1237;107331;-79
2024/01/14 17:08:48;;;;;;;19.60;9.70;;;;;;;0.58;68.82;97696.21;109048;1234;96583;-81
2024/01/14 17:11:19;;;;;;;21.50;10.60;;;;;;;0.57;68.97;97689.08;108977;1232;96606;-80
2024/01/14 17:13:46;;;;;;;24.70;12.10;;;;;;;0.58;68.89;97687.31;108795;1233;109507;-80
2024/01/14 17:16:25;;;;;;;27.70;12.20;;;;;;;0.59;68.96;97686.36;108712;1237;96578;-80
2024/01/14 17:18:54;;;;;;;34.10;14.10;;;;;;;0.57;69.08;97685.98;109006;1235;108175;-80
2024/01/14 17:21:22;;;;;;;36.70;14.40;;;;;;;0.50;68.83;97684.05;109053;1237;96665;-81
2024/01/14 17:23:50;;;;;;;33.50;14.30;;;;;;;0.44;69.06;97686.14;109050;1234;96710;-81
2024/01/14 17:26:17;;;;;;;28.30;13.40;;;;;;;0.38;68.83;97681.77;108901;1237;96613;-80
2024/01/14 17:28:44;;;;;;;28.60;13.40;;;;;;;0.32;69.10;97674.56;108966;1233;96670;-81
2024/01/14 17:31:13;;;;;;;28.40;14.10;;;;;;;0.27;69.12;97673.22;108955;1234;96568;-79
2024/01/14 17:33:44;;;;;;;22.60;11.80;;;;;;;0.23;69.05;97670.84;111125;1232;94773;-78
2024/01/14 17:36:16;;;;;;;29.90;13.50;;;;;;;0.20;68.88;97667.38;109247;1237;96576;-79
2024/01/14 17:38:47;;;;;;;26.80;13.20;;;;;;;0.20;68.90;97663.37;109324;1237;110570;-80
2024/01/14 17:41:14;;;;;;;28.70;13.50;;;;;;;0.18;69.16;97665.55;108851;1235;96533;-79
2024/01/14 17:43:41;;;;;;;31.60;14.80;;;;;;;0.15;68.88;97665.36;109488;1235;96603;-79
2024/01/14 17:46:08;;;;;;;37.70;16.90;;;;;;;0.11;68.92;97657.31;109159;1237;96491;-79
2024/01/14 17:48:38;;;;;;;57.30;22.20;;;;;;;0.09;69.08;97655.38;108997;1234;97518;-80
2024/01/14 17:51:07;;;;;;;53.30;21.00;;;;;;;0.05;68.91;97655.89;108930;1237;109755;-80
2024/01/14 17:53:34;;;;;;;42.00;17.60;;;;;;;0.04;69.11;97658.26;108847;1235;97493;-79
2024/01/14 17:56:02;;;;;;;46.80;18.50;;;;;;;0.02;69.06;97655.04;109323;1237;97493;-79
2024/01/14 17:58:28;;;;;;;37.30;15.10;;;;;;;0.01;69.17;97651.78;109105;1235;96567;-80
2024/01/14 18:00:55;;;;;;;;;;;;;;;-0.01;69.11;97648.20;109120;1233;96489;-79
2024/01/14 18:03:22;;;;;;;32.50;12.40;;;;;;;-0.02;68.86;97647.59;108749;1234;96732;-80
2024/01/14 18:05:49;;;;;;;25.70;11.90;;;;;;;-0.02;68.95;97655.44;108805;1237;96528;-78
2024/01/14 18:08:16;;;;;;;25.50;12.50;;;;;;;-0.02;69.06;97658.89;108531;1238;96523;-79
2024/01/14 18:10:45;;;;;;;27.50;12.30;;;;;;;-0.03;69.13;97657.08;108562;1234;96472;-79
2024/01/14 18:13:15;;;;;;;24.60;11.70;;;;;;;-0.05;69.34;97651.05;108278;1241;109751;-80
2024/01/14 18:15:43;;;;;;;26.60;11.50;;;;;;;-0.09;68.87;97646.21;108675;1233;96694;-80
2024/01/14 18:18:11;;;;;;;27.10;13.00;;;;;;;-0.12;68.89;97648.45;108934;1234;106964;-78
2024/01/14 18:20:39;;;;;;;28.70;12.80;;;;;;;-0.13;69.00;97657.02;108933;1238;96562;-80
2024/01/14 18:23:07;;;;;;;27.00;12.40;;;;;;;-0.13;69.17;97659.32;108770;1234;95588;-80
2024/01/14 18:25:43;;;;;;;28.20;13.10;;;;;;;-0.14;68.85;97666.33;108543;1238;109206;-78
2024/01/14 18:28:14;;;;;;;27.50;12.10;;;;;;;-0.14;69.00;97660.39;108662;1237;97697;-78
2024/01/14 18:30:41;;;;;;;27.40;13.50;;;;;;;-0.15;68.91;97659.39;109097;1237;106973;-78
2024/01/14 18:33:08;;;;;;;29.80;13.00;;;;;;;-0.16;68.95;97657.16;108489;1235;96514;-79
2024/01/14 18:35:41;;;;;;;24.90;12.30;;;;;;;-0.18;68.82;97654.83;108573;1238;96661;-80
2024/01/14 18:38:11;;;;;;;23.90;12.80;;;;;;;-0.19;69.05;97655.20;108800;1233;108199;-80
2024/01/14 18:40:37;;;;;;;26.40;14.00;;;;;;;-0.20;68.99;97656.69;109048;1233;96579;-79
2024/01/14 18:43:04;;;;;;;25.60;11.70;;;;;;;-0.21;69.08;97655.17;109108;1237;96568;-79
2024/01/14 18:45:31;;;;;;;28.90;12.50;;;;;;;-0.24;69.12;97654.63;108943;1234;96571;-79
2024/01/14 18:47:58;;;;;;;29.70;13.30;;;;;;;-0.26;69.45;97651.08;109217;1238;97838;-79
2024/01/14 18:50:25;;;;;;;27.30;13.80;;;;;;;-0.29;69.37;97646.53;108946;1236;96576;-80
2024/01/14 18:52:52;;;;;;;29.90;14.20;;;;;;;-0.29;68.96;97657.31;108905;1232;98363;-79
2024/01/14 18:55:18;;;;;;;;;;;;;;;-0.29;69.15;97659.77;108730;1237;97808;-80
2024/01/14 18:57:45;;;;;;;29.40;12.90;;;;;;;-0.34;69.62;97655.48;108679;1238;97489;-78
2024/01/14 19:00:13;;;;;;;32.80;13.60;;;;;;;-0.36;69.19;97659.77;108716;1232;96574;-78
2024/01/14 19:02:43;;;;;;;25.20;12.30;;;;;;;-0.38;69.42;97653.95;108486;1233;97352;-81
2024/01/14 19:05:10;;;;;;;29.10;12.40;;;;;;;-0.40;69.38;97648.98;108974;1233;107124;-78
2024/01/14 19:07:38;;;;;;;26.40;13.20;;;;;;;-0.42;69.24;97645.60;108668;1233;96638;-79
2024/01/14 19:10:05;;;;;;;25.30;12.30;;;;;;;-0.45;69.77;97642.63;108822;1235;96396;-79
2024/01/14 19:12:32;;;;;;;22.70;10.10;;;;;;;-0.48;69.33;97634.05;109110;1236;109759;-80
2024/01/14 19:14:59;;;;;;;22.30;11.30;;;;;;;-0.50;69.84;97636.05;108889;1237;96574;-78
2024/01/14 19:17:25;;;;;;;20.70;9.50;;;;;;;-0.50;70.23;97636.09;108672;1237;96600;-79
2024/01/14 19:19:55;;;;;;;20.50;10.80;;;;;;;-0.52;69.97;97639.11;109041;1233;97921;-79
2024/01/14 19:22:21;;;;;;;;;;;;;;;-0.53;69.90;97637.60;108714;1237;97215;-80
2024/01/14 19:24:48;;;;;;;21.20;10.20;;;;;;;-0.55;69.87;97636.14;108659;1233;96698;-79
2024/01/14 19:27:15;;;;;;;24.20;10.90;;;;;;;-0.55;69.69;97639.80;108870;1238;96582;-80
2024/01/14 19:29:44;;;;;;;;;;;;;;;-0.55;69.77;97637.56;108702;1237;96595;-80
2024/01/14 19:32:11;;;;;;;20.30;9.60;;;;;;;-0.56;69.48;97640.38;108524;1237;96658;-79
2024/01/14 19:34:38;;;;;;;23.60;11.90;;;;;;;-0.55;69.94;97635.48;108504;1237;96569;-79
2024/01/14 19:37:05;;;;;;;20.40;10.80;;;;;;;-0.56;69.84;97635.84;108860;1237;97845;-79
2024/01/14 19:39:32;;;;;;;26.40;12.00;;;;;;;-0.57;69.73;97634.16;108898;1234;96597;-80
2024/01/14 19:42:03;;;;;;;29.10;13.30;;;;;;;-0.58;69.75;97634.03;108628;1238;97496;-79
2024/01/14 19:44:31;;;;;;;25.10;12.80;;;;;;;-0.58;69.83;97631.25;108638;1234;96500;-79
2024/01/14 19:46:57;;;;;;;26.30;12.80;;;;;;;-0.58;69.75;97628.81;108828;1237;96491;-79
2024/01/14 19:49:25;;;;;;;;;;;;;;;-0.57;69.71;97626.19;108610;1237;96769;-80
2024/01/14 19:51:52;;;;;;;31.60;13.40;;;;;;;-0.59;69.64;97623.27;108632;1233;96572;-78
2024/01/14 19:54:19;;;;;;;25.60;12.40;;;;;;;-0.58;69.81;97619.61;108475;1237;96499;-80
2024/01/14 19:56:48;;;;;;;26.00;13.00;;;;;;;-0.58;70.32;97618.02;108637;1239;96581;-79
2024/01/14 19:59:15;;;;;;;26.50;12.70;;;;;;;-0.58;70.40;97614.38;108539;1237;96581;-80
2024/01/14 20:01:43;;;;;;;;;;;;;;;-0.60;69.82;97618.08;108673;1239;96602;-78
2024/01/14 20:04:09;;;;;;;24.00;10.10;;;;;;;-0.61;70.25;97620.11;108933;1237;96596;-77
2024/01/14 20:06:36;;;;;;;;;;;;;;;-0.63;70.11;97620.52;108289;1237;96686;-79
2024/01/14 20:09:03;;;;;;;25.70;11.70;;;;;;;-0.64;70.01;97612.59;108129;1237;96578;-78
2024/01/14 20:11:30;;;;;;;29.10;14.00;;;;;;;-0.64;70.13;97617.27;108182;1237;96595;-79
2024/01/14 20:13:59;;;;;;;27.20;13.10;;;;;;;-0.63;69.85;97613.41;108440;1235;96684;-79
2024/01/14 20:16:27;;;;;;;28.00;12.50;;;;;;;-0.63;70.27;97615.15;108498;1232;107503;-81
2024/01/14 20:18:54;;;;;;;29.10;13.50;;;;;;;-0.63;70.29;97609.57;108407;1237;96581;-77
2024/01/14 20:21:23;;;;;;;24.00;12.00;;;;;;;-0.62;70.30;97613.33;108423;1233;96622;-80
2024/01/14 20:23:50;;;;;;;27.20;12.50;;;;;;;-0.62;69.93;97608.45;108157;1237;109217;-79
2024/01/14 20:26:17;;;;;;;22.60;12.20;;;;;;;-0.61;70.01;97610.65;108319;1239;97844;-79
2024/01/14 20:28:43;;;;;;;;;;;;;;;-0.61;70.15;97609.48;108289;1237;96594;-79
2024/01/14 20:31:10;;;;;;;23.10;12.40;;;;;;;-0.63;69.80;97609.56;108077;1235;97507;-78
2024/01/14 20:33:37;;;;;;;31.50;14.20;;;;;;;-0.62;69.80;97610.92;107973;1235;96600;-80
2024/01/14 20:36:05;;;;;;;31.40;15.00;;;;;;;-0.63;70.06;97608.17;108358;1237;96576;-79
2024/01/14 20:38:31;;;;;;;33.60;14.90;;;;;;;-0.65;70.28;97608.09;108134;1243;97359;-80
2024/01/14 20:40:58;;;;;;;29.60;14.10;;;;;;;-0.67;70.69;97606.44;108360;1239;96576;-79
2024/01/14 20:43:24;;;;;;;31.10;15.20;;;;;;;-0.69;70.22;97600.30;108401;1237;96572;-77
2024/01/14 20:45:54;;;;;;;30.50;14.70;;;;;;;-0.70;70.70;97599.30;108455;1238;110213;-79
2024/01/14 20:48:21;;;;;;;;;;;;;;;-0.72;70.82;97599.05;108461;1233;96584;-79
2024/01/14 20:50:48;;;;;;;29.80;14.20;;;;;;;-0.76;71.24;97594.02;108321;1244;97097;-78
2024/01/14 20:53:17;;;;;;;27.70;12.90;;;;;;;-0.79;71.14;97595.58;109140;1237;96583;-78
2024/01/14 20:55:44;;;;;;;30.20;12.60;;;;;;;-0.81;70.74;97592.34;108980;1237;96606;-79
2024/01/14 20:58:11;;;;;;;33.40;14.20;;;;;;;-0.81;71.21;97596.70;109051;1237;96584;-79
2024/01/14 21:00:40;;;;;;;32.60;15.10;;;;;;;-0.81;70.87;97592.88;108956;1233;97906;-79
2024/01/14 21:03:11;;;;;;;33.20;16.60;;;;;;;-0.81;70.45;97595.84;109112;1233;106850;-79
2024/01/14 21:05:38;;;;;;;30.30;14.80;;;;;;;-0.80;70.01;97596.33;109226;1237;96514;-79
2024/01/14 21:08:06;;;;;;;23.00;12.40;;;;;;;-0.79;70.49;97592.23;109222;1237;96574;-80
2024/01/14 21:10:32;;;;;;;30.20;15.10;;;;;;;-0.78;70.55;97587.14;108788;1233;96579;-78
2024/01/14 21:12:59;;;;;;;26.30;12.60;;;;;;;-0.79;70.44;97586.48;108993;1233;97521;-79
2024/01/14 21:15:25;;;;;;;29.50;14.10;;;;;;;-0.81;70.92;97582.92;109290;1237;96594;-79
2024/01/14 21:17:52;;;;;;;;;;;;;;;-0.81;71.05;97579.62;108859;1239;96719;-79
2024/01/14 21:20:18;;;;;;;30.90;14.00;;;;;;;-0.82;70.88;97576.91;108822;1237;108730;-78
2024/01/14 21:22:45;;;;;;;38.70;18.00;;;;;;;-0.83;70.65;97570.21;108655;1237;96597;-79
2024/01/14 21:25:12;;;;;;;36.90;15.60;;;;;;;-0.82;70.86;97575.02;108788;1238;96640;-80
2024/01/14 21:27:40;;;;;;;34.70;15.70;;;;;;;-0.83;71.01;97573.14;108344;1237;96690;-80
2024/01/14 21:30:08;;;;;;;36.70;15.30;;;;;;;-0.83;70.94;97570.71;108542;1237;97492;-83
2024/01/14 21:32:37;;;;;;;29.60;14.30;;;;;;;-0.84;71.04;97576.48;108561;1237;96629;-80
2024/01/14 21:35:05;;;;;;;31.80;14.10;;;;;;;-0.86;71.31;97568.58;108540;1233;96662;-81
2024/01/14 21:37:34;;;;;;;31.70;15.50;;;;;;;-0.86;70.49;97563.73;108420;1233;107576;-81
2024/01/14 21:40:00;;;;;;;29.80;14.70;;;;;;;-0.86;70.32;97562.71;108568;1233;96680;-80
2024/01/14 21:42:27;;;;;;;;;;;;;;;-0.87;70.93;97560.65;108706;1236;96504;-78
2024/01/14 21:44:57;;;;;;;30.90;14.90;;;;;;;-0.91;71.50;97560.46;108512;1237;96596;-78
2024/01/14 21:47:24;;;;;;;24.50;12.10;;;;;;;-0.92;71.04;97560.50;108555;1238;96664;-79
2024/01/14 21:49:50;;;;;;;21.10;11.10;;;;;;;-0.93;71.13;97557.44;108438;1242;96526;-79
2024/01/14 21:52:17;;;;;;;;;;;;;;;-0.93;71.26;97555.52;108765;1238;96618;-80
2024/01/14 21:54:43;;;;;;;26.20;12.80;;;;;;;-0.93;70.84;97554.86;108513;1236;96664;-79
2024/01/14 21:57:11;;;;;;;34.70;16.10;;;;;;;-0.94;70.90;97551.05;108282;1236;97845;-79
2024/01/14 21:59:37;;;;;;;39.90;18.60;;;;;;;-0.92;70.37;97546.61;108547;1240;106511;-79
2024/01/14 22:02:04;;;;;;;31.10;15.10;;;;;;;-0.91;70.31;97548.82;108823;1242;96596;-79
2024/01/14 22:04:32;;;;;;;34.10;14.40;;;;;;;-0.92;70.90;97547.83;108709;1236;96598;-78
2024/01/14 22:06:58;;;;;;;;;;;;;;;-0.93;70.78;97548.79;108551;1232;96597;-79
2024/01/14 22:09:25;;;;;;;28.00;13.40;;;;;;;-0.96;70.70;97545.73;108385;1240;96574;-80
2024/01/14 22:11:52;;;;;;;30.20;14.30;;;;;;;-0.95;71.11;97539.59;108393;1247;96696;-79
2024/01/14 22:14:18;;;;;;;30.90;13.30;;;;;;;-0.95;71.03;97531.97;108437;1236;96588;-78
2024/01/14 22:16:45;;;;;;;27.30;12.70;;;;;;;-0.96;70.54;97531.83;108378;1240;97812;-79
2024/01/14 22:19:12;;;;;;;28.20;12.40;;;;;;;-0.96;70.75;97529.55;108555;1236;96684;-80
2024/01/14 22:21:40;;;;;;;28.90;14.10;;;;;;;-0.96;71.40;97525.56;108690;1233;96570;-80
2024/01/14 22:24:07;;;;;;;25.60;11.90;;;;;;;-0.96;70.72;97516.89;108665;1232;96989;-78
2024/01/14 22:26:34;;;;;;;24.70;12.50;;;;;;;-0.95;70.89;97514.58;108424;1232;96607;-80
2024/01/14 22:29:00;;;;;;;29.20;14.20;;;;;;;-0.95;70.97;97513.53;108227;1244;97499;-81
2024/01/14 22:31:27;;;;;;;24.70;13.30;;;;;;;-0.95;70.57;97508.83;108294;1238;96664;-79
2024/01/14 22:33:54;;;;;;;31.40;13.60;;;;;;;-0.95;70.62;97507.77;108394;1236;96606;-78
2024/01/14 22:36:21;;;;;;;27.20;13.30;;;;;;;-0.93;70.57;97507.19;108230;1246;97873;-78
2024/01/14 22:38:49;;;;;;;25.00;12.50;;;;;;;-0.94;70.47;97509.11;108196;1239;96612;-78
2024/01/14 22:41:15;;;;;;;30.00;13.30;;;;;;;-0.94;70.61;97501.96;108432;1232;96596;-78
2024/01/14 22:43:42;;;;;;;;;;;;;;;-0.93;70.41;97496.39;108235;1236;96601;-78
2024/01/14 22:46:10;;;;;;;24.00;11.60;;;;;;;-0.94;70.41;97500.06;108138;1236;97469;-78
2024/01/14 22:48:38;;;;;;;22.60;11.40;;;;;;;-0.93;70.61;97496.37;108354;1233;96593;-80
2024/01/14 22:51:05;;;;;;;;;;;;;;;-0.93;70.81;97489.74;108308;1239;97822;-79
2024/01/14 22:53:31;;;;;;;25.00;11.10;;;;;;;-0.94;70.48;97487.86;108501;1233;97486;-79
2024/01/14 22:55:58;;;;;;;27.70;13.50;;;;;;;-0.93;70.30;97482.46;108460;1238;96638;-79
2024/01/14 22:58:25;;;;;;;23.70;11.70;;;;;;;-0.94;70.35;97479.84;108425;1232;96585;-78
2024/01/14 23:00:51;;;;;;;26.70;13.20;;;;;;;-0.94;70.37;97476.21;108418;1232;110012;-79
2024/01/14 23:03:18;;;;;;;25.30;12.10;;;;;;;-0.93;70.44;97471.13;108467;1236;96593;-79
2024/01/14 23:05:44;;;;;;;33.10;12.10;;;;;;;-0.93;70.02;97468.52;108418;1232;96679;-79
2024/01/14 23:08:11;;;;;;;21.90;11.70;;;;;;;-0.93;70.04;97466.77;108482;1236;97431;-77
2024/01/14 23:10:38;;;;;;;26.40;11.90;;;;;;;-0.93;70.33;97467.29;108501;1236;96600;-78
2024/01/14 23:13:04;;;;;;;;;;;;;;;-0.93;70.45;97465.42;108457;1236;96584;-78
2024/01/14 23:15:30;;;;;;;28.30;13.30;;;;;;;-0.94;70.26;97464.42;108524;1239;96667;-79
2024/01/14 23:17:57;;;;;;;27.20;12.90;;;;;;;-0.94;70.43;97456.77;108250;1235;147146;-79
2024/01/14 23:20:24;;;;;;;;;;;;;;;-0.95;70.52;97455.21;111406;1232;94451;-79
2024/01/14 23:22:50;;;;;;;22.60;11.10;;;;;;;-0.95;70.37;97451.95;111484;1232;94287;-78
2024/01/14 23:25:18;;;;;;;30.10;14.00;;;;;;;-0.95;70.16;97441.83;111072;1236;107435;-78
2024/01/14 23:27:45;;;;;;;;;;;;;;;-0.93;70.30;97442.08;108367;1233;96597;-79
2024/01/14 23:30:12;;;;;;;24.00;11.00;;;;;;;-0.93;70.34;97435.97;110248;1236;94860;-79
2024/01/14 23:32:39;;;;;;;21.20;10.80;;;;;;;-0.93;70.29;97423.45;108300;1236;96570;-79
2024/01/14 23:35:07;;;;;;;26.90;12.60;;;;;;;-0.93;70.26;97421.54;108322;1247;96602;-79
2024/01/14 23:37:36;;;;;;;32.50;14.00;;;;;;;-0.93;69.99;97419.23;108750;1236;96610;-79
2024/01/14 23:40:06;;;;;;;30.10;13.50;;;;;;;-0.92;70.18;97411.04;108922;1236;97807;-79
2024/01/14 23:42:32;;;;;;;27.80;12.30;;;;;;;-0.92;70.42;97412.46;108784;1236;96491;-79
2024/01/14 23:44:59;;;;;;;29.40;13.70;;;;;;;-0.94;70.24;97409.22;108869;1232;96642;-78
2024/01/14 23:47:26;;;;;;;30.90;13.40;;;;;;;-0.96;70.49;97406.17;108430;1233;96584;-78
2024/01/14 23:49:52;;;;;;;24.00;11.30;;;;;;;-0.95;70.10;97404.77;108825;1232;97084;-78
2024/01/14 23:52:19;;;;;;;25.20;12.90;;;;;;;-0.95;70.33;97404.42;108456;1236;97870;-79
2024/01/14 23:54:46;;;;;;;29.70;14.00;;;;;;;-0.96;70.33;97401.52;108245;1236;109722;-79
2024/01/14 23:57:12;;;;;;;34.00;13.70;;;;;;;-0.97;70.25;97397.91;108554;1245;96620;-80
2024/01/14 23:59:40;;;;;;;27.30;13.50;;;;;;;-0.98;70.14;97395.70;108660;1239;96576;-78
